Beloit, Ohio
Current Conditions -  °F | °C
As of 12:51 PM on Wednesday 26 Nov 2014 (Local Time) from KCAK Reporting Station
Overcast Overcast  
Wind Chill: 32°   Ceiling: 3400
Heat Index: 36°   Visibility: 10mi
Dew Point: 26°   Wind: 5mph
Humidity: 67%   Direction: 30°NNE
Pressure: 30.04"   Gusts: NA
Location:  40.92°N, 80.99°W
Report Text: KCAK 261751Z 03004KT 10SM OVC034 02/M03 A3004 RMK AO2 SLP185 BINOVC T00221033 10028 21006 58014
Loading
Personal Weather Stations






























Interactive Weather Map New forecast layout! Learn more

10-Day Weather Forecast

Advertisements
Track Severe Weather on mobile